createdAt,value
2018-06-15T00:00:02.057Z,66.10
2018-06-15T00:02:31.582Z,65.50
2018-06-15T00:04:59.101Z,65.20
2018-06-15T00:07:26.676Z,65.00
2018-06-15T00:09:54.272Z,64.90
2018-06-15T00:12:21.819Z,65.40
2018-06-15T00:14:50.082Z,66.20
2018-06-15T00:17:17.607Z,65.50
2018-06-15T00:19:45.173Z,65.50
2018-06-15T00:22:13.655Z,65.00
2018-06-15T00:24:41.209Z,65.50
2018-06-15T00:27:08.777Z,65.40
2018-06-15T00:29:36.233Z,65.40
2018-06-15T00:32:03.868Z,65.00
2018-06-15T00:34:31.397Z,64.70
2018-06-15T00:36:58.976Z,64.90
2018-06-15T00:39:26.500Z,65.10
2018-06-15T00:41:54.121Z,65.00
2018-06-15T00:44:23.823Z,65.40
2018-06-15T00:46:55.390Z,65.40
2018-06-15T00:49:22.986Z,65.30
2018-06-15T00:51:50.509Z,65.30
2018-06-15T00:54:18.649Z,65.30
2018-06-15T00:56:57.946Z,65.20
2018-06-15T00:59:25.479Z,65.30
2018-06-15T01:01:53.272Z,65.10
2018-06-15T01:04:20.772Z,65.10
2018-06-15T01:06:48.285Z,65.30
2018-06-15T01:09:15.789Z,65.30
2018-06-15T01:11:43.547Z,65.20
2018-06-15T01:14:12.104Z,66.00
2018-06-15T01:19:08.389Z,65.30
2018-06-15T01:21:36.577Z,65.00
2018-06-15T01:24:04.222Z,65.30
2018-06-15T01:26:31.789Z,66.00
2018-06-15T01:28:59.328Z,65.90
2018-06-15T01:31:27.977Z,65.30
2018-06-15T01:33:56.872Z,65.20
2018-06-15T01:36:25.915Z,65.20
2018-06-15T01:38:55.132Z,65.20
2018-06-15T01:41:22.689Z,65.20
2018-06-15T01:43:51.111Z,65.10
2018-06-15T01:46:19.832Z,65.80
2018-06-15T01:48:47.345Z,65.10
2018-06-15T01:51:14.846Z,65.80
2018-06-15T01:53:42.356Z,65.80
2018-06-15T01:56:09.916Z,65.60
2018-06-15T01:58:37.431Z,66.30
2018-06-15T02:01:05.764Z,65.90
2018-06-15T02:03:33.282Z,66.20
2018-06-15T02:06:00.753Z,66.00
2018-06-15T02:08:28.273Z,66.80
2018-06-15T02:10:56.331Z,66.40
2018-06-15T02:13:25.052Z,66.50
2018-06-15T02:15:53.269Z,66.60
2018-06-15T02:18:20.817Z,66.60
2018-06-15T02:20:48.505Z,66.80
2018-06-15T02:23:16.096Z,66.80
2018-06-15T02:25:43.539Z,66.60
2018-06-15T02:28:11.715Z,67.00
2018-06-15T02:33:06.711Z,66.90
2018-06-15T02:35:34.269Z,67.10
2018-06-15T02:38:02.064Z,67.00
2018-06-15T02:40:30.169Z,66.90
2018-06-15T02:42:58.150Z,66.70
2018-06-15T02:45:26.774Z,66.90
2018-06-15T02:47:55.374Z,67.00
2018-06-15T02:50:24.802Z,67.10
2018-06-15T02:52:53.397Z,67.10
2018-06-15T02:55:20.980Z,67.50
2018-06-15T02:57:51.704Z,67.70
2018-06-15T03:00:20.200Z,68.00
2018-06-15T03:02:47.745Z,68.10
2018-06-15T03:05:15.751Z,68.40
2018-06-15T03:07:43.264Z,68.40
2018-06-15T03:10:11.482Z,68.20
2018-06-15T03:12:42.540Z,68.50
2018-06-15T03:15:10.178Z,68.30
2018-06-15T03:17:37.772Z,68.30
2018-06-15T03:20:06.339Z,68.40
2018-06-15T03:22:33.863Z,68.40
2018-06-15T03:25:03.782Z,68.40
2018-06-15T03:27:31.471Z,69.10
2018-06-15T03:29:59.851Z,69.10
2018-06-15T03:32:27.361Z,68.70
2018-06-15T03:34:56.753Z,69.10
2018-06-15T03:37:25.353Z,69.20
2018-06-15T03:39:53.108Z,69.20
2018-06-15T03:42:21.166Z,68.40
2018-06-15T03:44:48.631Z,69.10
2018-06-15T03:47:16.155Z,68.30
2018-06-15T03:49:44.313Z,69.20
2018-06-15T03:52:11.848Z,69.20
2018-06-15T03:57:06.804Z,69.20
2018-06-15T03:59:35.393Z,69.10
2018-06-15T04:02:03.734Z,69.20
2018-06-15T04:04:32.313Z,69.10
2018-06-15T04:07:01.111Z,69.10
2018-06-15T04:09:28.624Z,69.00
2018-06-15T04:11:56.183Z,69.20
2018-06-15T04:14:23.699Z,69.20
2018-06-15T04:16:51.196Z,69.20
2018-06-15T04:19:18.764Z,69.80
2018-06-15T04:21:46.286Z,69.20
2018-06-15T04:24:14.257Z,69.20
2018-06-15T04:26:41.959Z,69.10
2018-06-15T04:29:09.471Z,69.70
2018-06-15T04:31:38.038Z,69.20
2018-06-15T04:34:06.626Z,69.00
2018-06-15T04:36:34.554Z,69.00
2018-06-15T04:39:03.023Z,69.30
2018-06-15T04:41:30.637Z,68.10
2018-06-15T04:43:58.245Z,69.30
2018-06-15T04:46:25.701Z,69.30
2018-06-15T04:48:53.306Z,69.30
2018-06-15T04:53:49.619Z,69.90
2018-06-15T04:56:17.165Z,69.90
2018-06-15T04:58:45.274Z,68.80
2018-06-15T05:01:12.814Z,69.70
2018-06-15T05:03:41.784Z,68.90
2018-06-15T05:06:10.267Z,69.00
2018-06-15T05:08:37.827Z,69.00
2018-06-15T05:13:33.119Z,69.40
2018-06-15T05:25:45.643Z,69.50
2018-06-15T05:28:13.764Z,69.40
2018-06-15T05:35:40.028Z,69.50
2018-06-15T05:43:03.079Z,68.20
2018-06-15T05:45:30.610Z,68.30
2018-06-15T05:47:58.399Z,68.60
2018-06-15T05:50:26.632Z,69.00
2018-06-15T05:52:54.178Z,68.70
2018-06-15T05:55:22.928Z,69.00
2018-06-15T05:57:50.612Z,69.40
2018-06-15T06:00:18.175Z,68.70
2018-06-15T06:02:46.304Z,68.30
2018-06-15T06:05:14.697Z,68.00
2018-06-15T06:07:42.370Z,68.90
2018-06-15T06:10:09.816Z,69.40
2018-06-15T06:12:37.365Z,70.20
2018-06-15T06:15:04.942Z,68.80
2018-06-15T06:17:32.441Z,68.30
2018-06-15T06:22:29.153Z,68.10
2018-06-15T06:24:56.728Z,68.10
2018-06-15T06:27:24.250Z,68.60
2018-06-15T06:29:52.316Z,69.50
2018-06-15T06:32:19.832Z,68.70
2018-06-15T06:34:47.312Z,69.30
2018-06-15T06:37:14.888Z,68.60
2018-06-15T06:39:42.578Z,68.30
2018-06-15T06:42:10.054Z,68.00
2018-06-15T06:44:38.500Z,67.60
2018-06-15T06:47:06.024Z,68.50
2018-06-15T06:49:33.567Z,67.20
2018-06-15T06:52:01.180Z,67.70
2018-06-15T06:54:29.377Z,66.70
2018-06-15T06:56:56.910Z,67.70
2018-06-15T06:59:24.368Z,65.70
2018-06-15T07:01:51.849Z,65.70
2018-06-15T07:04:20.278Z,66.30
2018-06-15T07:06:49.040Z,66.30
2018-06-15T07:09:18.761Z,67.00
2018-06-15T07:11:46.357Z,66.60
2018-06-15T07:16:41.351Z,65.90
2018-06-15T07:19:08.948Z,66.40
2018-06-15T07:21:36.861Z,65.20
2018-06-15T07:24:04.842Z,65.90
2018-06-15T07:26:32.403Z,64.80
2018-06-15T07:31:27.614Z,64.30
2018-06-15T07:33:55.124Z,64.10
2018-06-15T07:36:22.832Z,64.00
2018-06-15T07:38:51.212Z,64.70
2018-06-15T07:41:20.277Z,64.10
2018-06-15T07:43:48.433Z,64.10
2018-06-15T07:46:15.937Z,64.00
2018-06-15T07:48:43.630Z,63.50
2018-06-15T07:51:11.079Z,63.40
2018-06-15T07:53:38.573Z,63.80
2018-06-15T07:56:06.152Z,63.10
2018-06-15T07:58:33.794Z,63.70
2018-06-15T08:01:01.303Z,63.60
2018-06-15T08:03:29.867Z,64.10
2018-06-15T08:05:57.542Z,64.30
2018-06-15T08:08:25.057Z,63.40
2018-06-15T08:10:52.602Z,63.30
2018-06-15T08:13:21.644Z,63.60
2018-06-15T08:15:49.828Z,63.90
2018-06-15T08:18:17.387Z,65.00
2018-06-15T08:20:45.009Z,64.30
2018-06-15T08:23:12.559Z,65.10
2018-06-15T08:25:40.093Z,64.20
2018-06-15T08:28:07.637Z,64.70
2018-06-15T08:30:36.095Z,64.80
2018-06-15T08:33:04.238Z,65.10
2018-06-15T08:37:59.220Z,65.50
2018-06-15T08:40:26.848Z,65.60
2018-06-15T08:42:54.370Z,65.60
2018-06-15T08:45:23.157Z,65.70
2018-06-15T08:47:51.445Z,65.30
2018-06-15T08:50:19.961Z,65.10
2018-06-15T08:52:47.588Z,64.90
2018-06-15T08:55:16.808Z,64.40
2018-06-15T08:57:44.309Z,64.00
2018-06-15T09:00:11.839Z,64.50
2018-06-15T09:02:40.434Z,64.10
2018-06-15T09:05:08.571Z,63.50
2018-06-15T09:07:37.595Z,63.50
2018-06-15T09:10:05.691Z,63.10
2018-06-15T09:12:33.217Z,62.60
2018-06-15T09:15:00.711Z,63.30
2018-06-15T09:17:29.789Z,62.30
2018-06-15T09:20:01.134Z,62.70
2018-06-15T09:22:31.291Z,61.60
2018-06-15T09:24:59.549Z,61.00
2018-06-15T09:29:55.548Z,60.30
2018-06-15T09:34:50.513Z,59.90
2018-06-15T09:37:19.033Z,60.80
2018-06-15T09:39:46.728Z,59.50
2018-06-15T09:42:14.288Z,60.40
2018-06-15T09:44:42.009Z,60.50
2018-06-15T09:49:38.067Z,59.60
2018-06-15T09:52:06.122Z,59.60
2018-06-15T09:54:33.800Z,59.20
2018-06-15T09:57:02.667Z,58.70
2018-06-15T09:59:31.136Z,58.60
2018-06-15T10:01:59.085Z,58.60
2018-06-15T10:04:26.602Z,58.40
2018-06-15T10:11:50.018Z,57.70
2018-06-15T10:14:17.742Z,57.40
2018-06-15T10:16:45.432Z,57.20
2018-06-15T10:19:13.728Z,57.70
2018-06-15T10:21:42.445Z,57.80
2018-06-15T10:24:10.693Z,58.40
2018-06-15T10:26:38.306Z,58.50
2018-06-15T10:29:06.980Z,57.20
2018-06-15T10:31:34.590Z,56.90
2018-06-15T10:34:02.046Z,56.00
2018-06-15T10:36:30.954Z,56.90
2018-06-15T10:38:58.597Z,54.70
2018-06-15T10:41:26.069Z,54.90
2018-06-15T10:43:54.118Z,55.50
2018-06-15T10:46:21.681Z,55.90
2018-06-15T10:51:19.056Z,54.50
2018-06-15T10:53:46.630Z,54.90
2018-06-15T10:56:14.697Z,55.80
2018-06-15T10:58:42.296Z,56.30
2018-06-15T11:01:09.867Z,56.50
2018-06-15T11:03:38.047Z,56.00
2018-06-15T11:06:10.340Z,56.20
2018-06-15T11:08:39.272Z,56.50
2018-06-15T11:11:10.191Z,56.60
2018-06-15T11:13:38.083Z,55.90
2018-06-15T11:16:05.805Z,56.40
2018-06-15T11:18:33.344Z,55.90
2018-06-15T11:21:02.010Z,56.00
2018-06-15T11:23:29.569Z,56.00
2018-06-15T11:26:00.190Z,55.20
2018-06-15T11:28:27.717Z,55.20
2018-06-15T11:30:55.795Z,55.90
2018-06-15T12:00:07.353Z,48.70
2018-06-15T12:02:34.995Z,54.00
2018-06-15T12:09:58.086Z,55.20
2018-06-15T12:14:54.040Z,54.00
2018-06-15T12:19:50.512Z,63.50
2018-06-15T12:22:18.081Z,58.30
2018-06-15T12:27:13.780Z,75.10
2018-06-15T12:32:09.573Z,76.80
2018-06-15T12:37:05.434Z,62.50
2018-06-15T12:39:33.705Z,59.40
2018-06-15T12:46:56.352Z,78.50
2018-06-15T12:49:24.489Z,49.30
2018-06-15T12:56:48.238Z,49.80
2018-06-15T13:01:48.143Z,61.40
2018-06-15T13:06:44.591Z,53.60
2018-06-15T13:09:12.450Z,67.00
2018-06-15T13:11:41.000Z,59.90
2018-06-15T13:14:08.758Z,68.60
2018-06-15T13:16:37.027Z,65.10
2018-06-15T13:19:04.931Z,77.80
2018-06-15T13:21:33.346Z,58.30
2018-06-15T13:24:00.979Z,54.80
2018-06-15T13:28:56.340Z,54.70
2018-06-15T13:31:23.975Z,55.00
2018-06-15T13:41:15.477Z,55.30
2018-06-15T13:43:43.045Z,55.30
2018-06-15T13:46:10.766Z,55.10
2018-06-15T13:51:11.951Z,55.00
2018-06-15T13:53:39.726Z,55.10
2018-06-15T13:58:34.993Z,52.70
2018-06-15T14:01:02.536Z,54.40
2018-06-15T14:03:30.260Z,54.90
2018-06-15T14:05:59.145Z,54.90
2018-06-15T14:08:26.925Z,55.00
2018-06-15T14:10:54.736Z,54.70
2018-06-15T14:13:22.317Z,55.40
2018-06-15T14:15:49.995Z,55.10
2018-06-15T14:18:17.753Z,55.30
2018-06-15T14:20:46.050Z,54.20
2018-06-15T14:23:13.813Z,54.50
2018-06-15T14:25:42.294Z,54.50
2018-06-15T14:28:11.121Z,54.40
2018-06-15T14:30:41.950Z,54.30
2018-06-15T14:33:09.469Z,55.00
2018-06-15T14:35:37.798Z,54.60
2018-06-15T14:38:05.332Z,54.30
2018-06-15T14:40:33.151Z,54.40
2018-06-15T14:43:00.826Z,54.60
2018-06-15T14:48:22.613Z,53.90
2018-06-15T14:50:50.311Z,54.00
2018-06-15T14:53:17.810Z,55.30
2018-06-15T14:55:47.104Z,54.30
2018-06-15T14:58:14.836Z,54.50
2018-06-15T15:12:54.990Z,54.70
2018-06-15T15:15:23.184Z,54.50
2018-06-15T15:20:20.149Z,59.40
2018-06-15T15:22:47.973Z,54.50
2018-06-15T15:25:17.896Z,54.50
2018-06-15T15:35:08.552Z,54.00
2018-06-15T15:37:36.786Z,54.70
2018-06-15T15:40:04.623Z,54.10
2018-06-15T15:42:32.287Z,54.20
2018-06-15T15:44:59.936Z,54.00
2018-06-15T15:47:27.993Z,54.20
2018-06-15T15:49:56.657Z,53.70
2018-06-15T15:52:25.174Z,53.70
2018-06-15T15:57:20.563Z,54.20
2018-06-15T16:04:47.346Z,57.10
2018-06-15T16:07:15.053Z,55.20
2018-06-15T16:09:43.206Z,53.80
2018-06-15T16:12:10.753Z,54.40
2018-06-15T16:14:38.980Z,54.30
2018-06-15T16:17:06.898Z,53.00
2018-06-15T16:19:34.448Z,52.70
2018-06-15T16:22:02.051Z,52.60
2018-06-15T16:24:29.579Z,54.20
2018-06-15T16:29:25.472Z,54.80
2018-06-15T16:31:53.079Z,54.90
2018-06-15T16:34:22.323Z,58.20
2018-06-15T16:36:50.026Z,53.90
2018-06-15T16:39:17.714Z,55.90
2018-06-15T16:41:46.154Z,53.90
2018-06-15T16:44:14.473Z,54.30
2018-06-15T16:46:42.132Z,53.70
2018-06-15T16:49:09.798Z,54.40
2018-06-15T16:51:37.313Z,54.20
2018-06-15T17:03:50.594Z,54.90
2018-06-15T17:06:18.252Z,54.70
2018-06-15T17:08:46.822Z,55.00
2018-06-15T17:11:14.477Z,54.90
2018-06-15T17:16:09.747Z,55.80
2018-06-15T17:18:37.307Z,55.50
2018-06-15T17:21:04.827Z,55.10
2018-06-15T17:23:32.429Z,55.20
2018-06-15T17:26:00.736Z,55.30
2018-06-15T17:28:28.248Z,55.10
2018-06-15T17:30:56.357Z,55.30
2018-06-15T17:33:24.468Z,55.30
2018-06-15T17:35:52.269Z,55.50
2018-06-15T17:38:20.493Z,55.90
2018-06-15T17:40:48.691Z,55.40
2018-06-15T17:43:16.273Z,55.90
2018-06-15T17:45:45.627Z,55.10
2018-06-15T17:48:14.533Z,56.00
2018-06-15T17:50:42.046Z,56.00
2018-06-15T17:53:10.203Z,55.40
2018-06-15T17:55:37.700Z,55.50
2018-06-15T17:58:05.817Z,55.10
2018-06-15T18:00:33.448Z,55.00
2018-06-15T18:03:01.096Z,56.00
2018-06-15T18:07:56.258Z,56.00
2018-06-15T18:10:23.948Z,56.00
2018-06-15T18:20:13.896Z,55.60
2018-06-15T18:25:08.946Z,55.90
2018-06-15T18:27:36.571Z,56.70
2018-06-15T18:30:04.886Z,56.00
2018-06-15T18:32:32.569Z,56.60
2018-06-15T18:35:00.177Z,56.20
2018-06-15T18:37:29.635Z,55.90
2018-06-15T18:39:57.124Z,56.20
2018-06-15T18:42:24.659Z,56.10
2018-06-15T18:49:48.371Z,57.30
2018-06-15T18:57:10.928Z,63.40
2018-06-15T18:59:38.675Z,62.10
2018-06-15T19:02:06.289Z,56.30
2018-06-15T19:07:01.380Z,57.30
2018-06-15T19:11:57.497Z,56.80
2018-06-15T19:16:54.067Z,57.20
2018-06-15T19:19:21.885Z,58.10
2018-06-15T19:21:49.633Z,57.60
2018-06-15T19:24:17.153Z,57.60
2018-06-15T19:29:12.337Z,58.80
2018-06-15T19:31:40.445Z,59.10
2018-06-15T19:34:08.720Z,59.40
2018-06-15T19:36:37.237Z,59.40
2018-06-15T19:39:06.185Z,59.30
2018-06-15T19:41:34.459Z,59.40
2018-06-15T19:44:02.138Z,59.20
2018-06-15T19:46:29.755Z,59.70
2018-06-15T19:48:57.794Z,59.40
2018-06-15T19:53:53.710Z,60.00
2018-06-15T19:58:48.694Z,60.70
2018-06-15T20:01:16.300Z,60.90
2018-06-15T20:03:43.849Z,60.90
2018-06-15T20:06:11.576Z,61.20
2018-06-15T20:08:39.234Z,61.40
2018-06-15T20:11:07.755Z,61.40
2018-06-15T20:13:35.994Z,61.50
2018-06-15T20:16:03.695Z,61.60
2018-06-15T20:18:31.201Z,61.60
2018-06-15T20:23:27.340Z,61.80
2018-06-15T20:25:55.288Z,61.80
2018-06-15T20:28:22.849Z,61.50
2018-06-15T20:30:50.472Z,62.20
2018-06-15T20:33:18.665Z,62.00
2018-06-15T20:35:46.272Z,62.60
2018-06-15T20:38:13.877Z,62.50
2018-06-15T20:40:43.171Z,63.00
2018-06-15T20:45:39.002Z,71.70
2018-06-15T20:48:06.698Z,66.80
2018-06-15T20:53:01.983Z,62.90
2018-06-15T20:57:57.923Z,65.90
2018-06-15T21:05:20.421Z,63.70
2018-06-15T21:07:48.129Z,64.10
2018-06-15T21:10:15.693Z,76.30
2018-06-15T21:20:06.448Z,72.10
2018-06-15T21:22:34.388Z,68.50
2018-06-15T21:25:02.010Z,72.00
2018-06-15T21:29:57.266Z,69.00
2018-06-15T21:34:52.340Z,71.10
2018-06-15T21:37:20.901Z,66.20
2018-06-15T21:39:49.373Z,71.30
2018-06-15T21:44:44.332Z,78.60
2018-06-15T21:47:11.910Z,80.20
2018-06-15T21:49:39.680Z,70.80
2018-06-15T21:52:07.907Z,81.00
2018-06-15T21:59:30.380Z,91.20
2018-06-15T22:01:57.937Z,65.50
2018-06-15T22:06:53.125Z,68.70
2018-06-15T22:09:22.272Z,68.00
2018-06-15T22:16:50.052Z,68.10
2018-06-15T22:19:19.833Z,66.10
2018-06-15T22:21:47.923Z,66.90
2018-06-15T22:24:16.380Z,66.30
2018-06-15T22:26:44.211Z,66.00
2018-06-15T22:31:39.690Z,66.10
2018-06-15T22:34:07.276Z,66.50
2018-06-15T22:39:02.454Z,66.00
2018-06-15T22:41:29.956Z,66.90
2018-06-15T22:43:57.580Z,67.20
2018-06-15T22:46:26.997Z,66.10
2018-06-15T22:51:22.049Z,67.00
2018-06-15T22:53:49.664Z,67.00
2018-06-15T22:56:17.501Z,67.00
2018-06-15T22:58:45.192Z,67.20
2018-06-15T23:06:09.178Z,66.70
2018-06-15T23:08:36.742Z,66.50
2018-06-15T23:11:04.443Z,66.60
2018-06-15T23:13:32.025Z,67.00
2018-06-15T23:15:59.624Z,67.00
2018-06-15T23:18:27.817Z,67.00
2018-06-15T23:23:22.828Z,66.80
2018-06-15T23:25:50.893Z,66.60
2018-06-15T23:28:18.445Z,66.70
2018-06-15T23:30:46.913Z,66.70
2018-06-15T23:33:14.472Z,67.30
2018-06-15T23:35:42.182Z,67.20
2018-06-15T23:38:09.864Z,67.30
2018-06-15T23:45:32.607Z,67.60
2018-06-15T23:48:00.343Z,67.30
2018-06-15T23:50:29.010Z,67.30
2018-06-15T23:52:57.835Z,67.40
2018-06-15T23:55:26.135Z,67.60
2018-06-15T23:57:53.725Z,67.40
